createdAt,value
2018-09-18T00:02:21.157Z,87.77
2018-09-18T00:04:51.259Z,87.79
2018-09-18T00:07:21.352Z,87.63
2018-09-18T00:09:51.481Z,87.50
2018-09-18T00:12:21.624Z,87.46
2018-09-18T00:14:51.658Z,87.02
2018-09-18T00:17:21.992Z,86.64
2018-09-18T00:19:52.035Z,86.91
2018-09-18T00:22:22.160Z,87.12
2018-09-18T00:24:52.189Z,87.15
2018-09-18T00:27:22.383Z,86.87
2018-09-18T00:29:52.456Z,87.21
2018-09-18T00:32:22.548Z,85.61
2018-09-18T00:34:52.610Z,86.74
2018-09-18T00:37:23.042Z,87.16
2018-09-18T00:39:53.089Z,87.15
2018-09-18T00:42:23.127Z,87.94
2018-09-18T00:44:53.196Z,87.89
2018-09-18T00:47:23.269Z,88.17
2018-09-18T00:49:53.429Z,87.99
2018-09-18T00:52:23.707Z,89.10
2018-09-18T00:54:53.749Z,89.27
2018-09-18T00:57:23.869Z,88.84
2018-09-18T00:59:53.969Z,88.88
2018-09-18T01:02:24.109Z,89.42
2018-09-18T01:04:54.244Z,89.48
2018-09-18T01:07:24.431Z,89.16
2018-09-18T01:09:54.534Z,89.03
2018-09-18T01:12:24.689Z,89.67
2018-09-18T01:14:54.814Z,89.80
2018-09-18T01:17:24.877Z,89.68
2018-09-18T01:19:54.931Z,90.19
2018-09-18T01:22:25.051Z,90.10
2018-09-18T01:24:55.367Z,90.50
2018-09-18T01:27:25.424Z,90.63
2018-09-18T01:29:55.497Z,90.76
2018-09-18T01:32:25.583Z,90.87
2018-09-18T01:34:55.684Z,90.87
2018-09-18T01:37:26.068Z,91.34
2018-09-18T01:39:56.095Z,91.76
2018-09-18T01:42:26.190Z,91.99
2018-09-18T01:44:56.307Z,91.92
2018-09-18T01:47:26.385Z,92.45
2018-09-18T01:49:56.523Z,92.51
2018-09-18T01:52:26.582Z,92.80
2018-09-18T01:54:56.601Z,92.96
2018-09-18T01:57:26.750Z,93.08
2018-09-18T01:59:56.852Z,93.26
2018-09-18T02:02:26.962Z,93.40
2018-09-18T02:04:57.032Z,93.12
2018-09-18T02:07:27.144Z,93.02
2018-09-18T02:09:57.258Z,92.78
2018-09-18T02:12:27.349Z,93.22
2018-09-18T02:14:57.425Z,93.28
2018-09-18T02:17:27.601Z,93.85
2018-09-18T02:19:57.631Z,93.54
2018-09-18T02:22:27.766Z,93.94
2018-09-18T02:24:57.935Z,94.56
2018-09-18T02:27:28.030Z,94.75
2018-09-18T02:29:58.087Z,95.05
2018-09-18T02:32:28.177Z,95.43
2018-09-18T02:34:58.176Z,95.31
2018-09-18T02:37:28.237Z,95.32
2018-09-18T02:39:58.327Z,95.31
2018-09-18T02:42:28.535Z,95.12
2018-09-18T02:44:58.615Z,95.09
2018-09-18T02:47:28.748Z,95.51
2018-09-18T02:49:58.807Z,95.81
2018-09-18T02:52:28.897Z,95.60
2018-09-18T02:54:58.955Z,95.44
2018-09-18T02:57:28.978Z,95.55
2018-09-18T02:59:59.045Z,95.56
2018-09-18T03:02:29.166Z,95.75
2018-09-18T03:04:59.336Z,95.06
2018-09-18T03:07:29.405Z,95.31
2018-09-18T03:09:59.513Z,95.16
2018-09-18T03:12:29.578Z,95.15
2018-09-18T03:14:59.674Z,95.20
2018-09-18T03:17:29.863Z,95.35
2018-09-18T03:19:59.939Z,94.68
2018-09-18T03:22:30.020Z,94.75
2018-09-18T03:25:00.145Z,94.49
2018-09-18T03:27:30.309Z,94.71
2018-09-18T03:30:00.321Z,94.47
2018-09-18T03:32:30.396Z,94.33
2018-09-18T03:35:00.433Z,94.22
2018-09-18T03:37:30.491Z,94.15
2018-09-18T03:40:00.609Z,94.53
2018-09-18T03:42:30.703Z,94.92
2018-09-18T03:45:00.806Z,94.61
2018-09-18T03:47:30.890Z,95.11
2018-09-18T03:50:01.020Z,95.40
2018-09-18T03:52:31.097Z,95.46
2018-09-18T03:55:01.185Z,95.08
2018-09-18T03:57:31.263Z,95.19
2018-09-18T04:00:01.310Z,95.40
2018-09-18T04:02:31.444Z,95.77
2018-09-18T04:05:01.551Z,95.60
2018-09-18T04:07:31.697Z,95.08
2018-09-18T04:10:01.762Z,95.18
2018-09-18T04:12:31.905Z,94.98
2018-09-18T04:15:02.134Z,95.07
2018-09-18T04:17:32.366Z,95.23
2018-09-18T04:20:02.619Z,94.85
2018-09-18T04:22:32.766Z,95.41
2018-09-18T04:25:02.850Z,95.47
2018-09-18T04:27:32.925Z,94.86
2018-09-18T04:30:03.050Z,95.44
2018-09-18T04:32:33.143Z,95.46
2018-09-18T04:35:03.195Z,95.15
2018-09-18T04:37:33.380Z,95.47
2018-09-18T04:40:03.506Z,95.56
2018-09-18T04:42:33.557Z,96.06
2018-09-18T04:45:03.729Z,96.19
2018-09-18T04:47:33.830Z,96.17
2018-09-18T04:50:03.972Z,96.15
2018-09-18T04:52:34.063Z,95.48
2018-09-18T04:55:04.225Z,95.38
2018-09-18T04:57:34.350Z,95.79
2018-09-18T05:00:04.498Z,95.83
2018-09-18T05:02:34.612Z,95.36
2018-09-18T05:05:04.787Z,95.51
2018-09-18T05:07:34.940Z,96.22
2018-09-18T05:10:05.072Z,96.03
2018-09-18T05:12:35.204Z,96.19
2018-09-18T05:15:05.321Z,96.34
2018-09-18T05:17:35.402Z,95.94
2018-09-18T05:20:05.658Z,95.80
2018-09-18T05:22:35.781Z,95.63
2018-09-18T05:25:06.177Z,95.84
2018-09-18T05:27:36.277Z,96.16
2018-09-18T05:30:06.823Z,96.35
2018-09-18T05:32:36.945Z,97.19
2018-09-18T05:35:07.019Z,97.07
2018-09-18T05:37:37.166Z,96.15
2018-09-18T05:40:07.696Z,96.71
2018-09-18T05:42:37.749Z,96.26
2018-09-18T05:45:08.100Z,95.29
2018-09-18T05:47:38.183Z,94.82
2018-09-18T05:50:08.291Z,95.15
2018-09-18T05:52:38.368Z,95.08
2018-09-18T05:55:08.496Z,94.85
2018-09-18T05:57:38.595Z,94.59
2018-09-18T06:00:08.750Z,94.47
2018-09-18T06:02:38.893Z,94.58
2018-09-18T06:05:09.154Z,93.83
2018-09-18T06:07:39.640Z,94.06
2018-09-18T06:10:09.824Z,94.39
2018-09-18T06:12:39.932Z,93.70
2018-09-18T06:15:10.025Z,92.27
2018-09-18T06:17:40.122Z,91.65
2018-09-18T06:20:10.220Z,89.95
2018-09-18T06:22:40.401Z,89.10
2018-09-18T06:25:10.544Z,88.04
2018-09-18T06:27:40.653Z,86.77
2018-09-18T06:30:10.793Z,85.94
2018-09-18T06:32:40.908Z,85.47
2018-09-18T06:35:11.093Z,85.13
2018-09-18T06:37:41.428Z,83.69
2018-09-18T06:40:11.647Z,83.75
2018-09-18T06:42:41.720Z,75.92
2018-09-18T06:45:11.948Z,68.53
2018-09-18T06:47:42.035Z,60.14
2018-09-18T06:50:12.089Z,54.86
2018-09-18T06:52:42.158Z,51.51
2018-09-18T06:55:12.273Z,45.22
2018-09-18T06:57:42.422Z,44.20
2018-09-18T07:00:12.622Z,41.26
2018-09-18T07:02:42.630Z,39.89
2018-09-18T07:05:12.720Z,39.17
2018-09-18T07:07:42.916Z,38.73
2018-09-18T07:10:13.062Z,37.25
2018-09-18T07:12:43.160Z,36.55
2018-09-18T07:15:13.229Z,36.75
2018-09-18T07:17:43.358Z,35.81
2018-09-18T07:20:13.527Z,35.90
2018-09-18T07:22:43.598Z,35.22
2018-09-18T07:25:13.655Z,34.00
2018-09-18T07:27:43.755Z,36.20
2018-09-18T07:30:13.813Z,35.41
2018-09-18T07:32:43.894Z,35.12
2018-09-18T07:35:13.934Z,33.36
2018-09-18T07:37:44.001Z,33.68
2018-09-18T07:40:14.093Z,32.02
2018-09-18T07:42:44.175Z,32.58
2018-09-18T07:45:14.228Z,31.95
2018-09-18T07:47:44.311Z,32.86
2018-09-18T07:50:14.739Z,33.15
2018-09-18T07:52:44.829Z,33.31
2018-09-18T07:55:14.894Z,32.27
2018-09-18T07:57:45.056Z,31.15
2018-09-18T08:00:15.097Z,30.96
2018-09-18T08:02:45.175Z,31.88
2018-09-18T08:05:15.237Z,30.83
2018-09-18T08:07:45.329Z,30.67
2018-09-18T08:10:15.473Z,30.28
2018-09-18T08:12:45.602Z,29.00
2018-09-18T08:15:15.647Z,30.20
2018-09-18T08:17:45.757Z,30.88
2018-09-18T08:20:15.905Z,29.98
2018-09-18T08:22:46.065Z,29.16
2018-09-18T08:25:16.125Z,30.23
2018-09-18T08:27:46.208Z,31.05
2018-09-18T08:30:16.267Z,30.56
2018-09-18T08:32:46.400Z,31.33
2018-09-18T08:35:16.493Z,30.43
2018-09-18T08:37:46.604Z,32.31
2018-09-18T08:40:16.674Z,30.27
2018-09-18T08:42:46.795Z,29.70
2018-09-18T08:45:16.884Z,28.87
2018-09-18T08:47:47.108Z,29.15
2018-09-18T08:50:17.138Z,30.43
2018-09-18T08:52:47.192Z,31.19
2018-09-18T08:55:17.307Z,30.98
2018-09-18T08:57:47.427Z,30.57
2018-09-18T09:00:17.545Z,31.13
2018-09-18T09:02:47.614Z,30.74
2018-09-18T09:05:17.781Z,30.04
2018-09-18T09:07:47.998Z,29.69
2018-09-18T09:10:18.112Z,30.23
2018-09-18T09:12:48.255Z,30.54
2018-09-18T09:15:18.392Z,30.61
2018-09-18T09:17:48.515Z,30.97
2018-09-18T09:20:18.626Z,30.21
2018-09-18T09:22:48.852Z,30.77
2018-09-18T09:25:18.813Z,30.25
2018-09-18T09:27:48.964Z,31.34
2018-09-18T09:30:18.995Z,32.59
2018-09-18T09:32:49.093Z,33.83
2018-09-18T09:35:19.181Z,35.30
2018-09-18T09:37:49.245Z,35.91
2018-09-18T09:40:19.262Z,36.21
2018-09-18T09:42:49.343Z,38.20
2018-09-18T09:45:19.425Z,37.70
2018-09-18T09:47:49.559Z,38.15
2018-09-18T09:50:19.609Z,38.07
2018-09-18T09:52:49.808Z,38.71
2018-09-18T09:55:19.819Z,38.97
2018-09-18T09:57:49.902Z,38.54
2018-09-18T10:00:25.048Z,38.47
2018-09-18T10:02:55.165Z,38.78
2018-09-18T10:05:25.195Z,38.70
2018-09-18T10:07:55.291Z,38.76
2018-09-18T10:10:25.380Z,38.12
2018-09-18T10:12:55.481Z,39.18
2018-09-18T10:15:25.585Z,40.17
2018-09-18T10:17:55.796Z,39.43
2018-09-18T10:20:25.779Z,39.09
2018-09-18T10:22:55.865Z,39.69
2018-09-18T10:25:25.939Z,39.57
2018-09-18T10:27:56.025Z,39.16
2018-09-18T10:30:26.099Z,39.18
2018-09-18T10:32:56.279Z,40.05
2018-09-18T10:35:26.451Z,40.04
2018-09-18T10:37:56.601Z,40.03
2018-09-18T10:40:26.683Z,39.68
2018-09-18T10:42:56.870Z,39.45
2018-09-18T10:45:26.891Z,40.10
2018-09-18T10:47:57.011Z,39.70
2018-09-18T10:50:27.090Z,39.88
2018-09-18T10:52:57.292Z,39.46
2018-09-18T10:55:30.666Z,40.38
2018-09-18T10:58:02.017Z,40.24
2018-09-18T11:00:33.871Z,38.86
2018-09-18T11:03:05.661Z,39.55
2018-09-18T11:05:39.199Z,39.68
2018-09-18T11:08:11.325Z,38.69
2018-09-18T11:10:42.856Z,39.27
2018-09-18T11:13:13.046Z,38.41
2018-09-18T11:15:43.514Z,39.82
2018-09-18T11:18:13.646Z,38.17
2018-09-18T11:20:43.869Z,39.04
2018-09-18T11:23:13.945Z,39.41
2018-09-18T11:25:44.007Z,39.80
2018-09-18T11:28:14.588Z,39.49
2018-09-18T11:30:44.671Z,38.63
2018-09-18T11:33:15.368Z,39.22
2018-09-18T11:35:45.492Z,39.32
2018-09-18T11:38:15.603Z,38.09
2018-09-18T11:40:45.677Z,38.55
2018-09-18T11:43:15.810Z,38.68
2018-09-18T11:45:46.029Z,38.87
2018-09-18T11:48:15.974Z,39.18
2018-09-18T11:50:46.117Z,40.38
2018-09-18T11:53:16.229Z,37.96
2018-09-18T11:55:46.320Z,39.01
2018-09-18T11:58:16.549Z,37.32
2018-09-18T12:00:46.739Z,37.39
2018-09-18T12:03:18.254Z,36.81
2018-09-18T12:05:48.394Z,37.06
2018-09-18T12:08:18.490Z,36.65
2018-09-18T12:10:48.593Z,35.33
2018-09-18T12:13:18.711Z,35.64
2018-09-18T12:15:48.725Z,34.45
2018-09-18T12:18:18.802Z,33.20
2018-09-18T12:20:48.945Z,32.99
2018-09-18T12:23:19.043Z,34.34
2018-09-18T12:25:49.104Z,33.08
2018-09-18T12:28:19.222Z,34.46
2018-09-18T12:30:49.310Z,33.94
2018-09-18T12:33:19.453Z,32.21
2018-09-18T12:35:49.617Z,29.68
2018-09-18T12:38:19.658Z,30.18
2018-09-18T12:40:49.744Z,30.49
2018-09-18T12:43:19.862Z,30.62
2018-09-18T12:45:50.012Z,30.37
2018-09-18T12:48:20.128Z,31.56
2018-09-18T12:50:50.199Z,30.34
2018-09-18T12:53:20.316Z,30.27
2018-09-18T12:55:50.372Z,30.25
2018-09-18T12:58:20.518Z,29.74
2018-09-18T13:00:50.581Z,31.56
2018-09-18T13:03:20.683Z,30.84
2018-09-18T13:05:50.906Z,30.03
2018-09-18T13:08:21.024Z,29.46
2018-09-18T13:10:51.237Z,30.12
2018-09-18T13:13:21.327Z,30.18
2018-09-18T13:15:51.570Z,30.90
2018-09-18T13:18:21.706Z,30.48
2018-09-18T13:20:51.750Z,29.25
2018-09-18T13:23:21.897Z,31.17
2018-09-18T13:25:51.996Z,30.34
2018-09-18T13:28:22.580Z,29.85
2018-09-18T13:30:52.644Z,30.84
2018-09-18T13:33:22.728Z,29.01
2018-09-18T13:35:52.842Z,31.05
2018-09-18T13:38:24.146Z,31.52
2018-09-18T13:40:54.312Z,31.28
2018-09-18T13:43:24.466Z,31.32
2018-09-18T13:45:54.735Z,31.18
2018-09-18T13:48:24.855Z,30.62
2018-09-18T13:50:54.963Z,31.26
2018-09-18T13:53:25.171Z,32.48
2018-09-18T13:55:55.298Z,30.73
2018-09-18T13:58:25.428Z,31.03
2018-09-18T14:00:55.844Z,30.81
2018-09-18T14:03:25.960Z,30.62
2018-09-18T14:05:56.070Z,31.25
2018-09-18T14:08:26.183Z,30.60
2018-09-18T14:10:56.255Z,30.70
2018-09-18T14:13:26.391Z,31.36
2018-09-18T14:15:56.469Z,30.37
2018-09-18T14:18:26.627Z,30.29
2018-09-18T14:20:56.690Z,30.00
2018-09-18T14:23:26.800Z,29.06
2018-09-18T14:25:56.908Z,29.18
2018-09-18T14:28:27.089Z,29.59
2018-09-18T14:30:57.231Z,28.92
2018-09-18T14:33:27.398Z,28.55
2018-09-18T14:35:57.657Z,29.06
2018-09-18T14:38:27.852Z,29.18
2018-09-18T14:40:58.019Z,29.20
2018-09-18T14:43:28.188Z,28.97
2018-09-18T14:45:59.601Z,29.00
2018-09-18T14:48:29.740Z,28.31
2018-09-18T14:51:00.034Z,27.78
2018-09-18T14:53:30.240Z,27.21
2018-09-18T14:56:00.253Z,28.26
2018-09-18T14:58:30.455Z,28.13
2018-09-18T15:01:00.807Z,28.00
2018-09-18T15:03:30.968Z,28.61
2018-09-18T15:06:01.142Z,27.75
2018-09-18T15:08:31.307Z,29.28
2018-09-18T15:11:01.454Z,28.56
2018-09-18T15:13:31.633Z,28.39
2018-09-18T15:16:01.816Z,28.61
2018-09-18T15:18:31.980Z,28.25
2018-09-18T15:21:02.095Z,28.49
2018-09-18T15:23:32.143Z,28.02
2018-09-18T15:26:02.361Z,29.22
2018-09-18T15:28:32.496Z,31.50
2018-09-18T15:31:02.633Z,31.08
2018-09-18T15:33:33.003Z,30.52
2018-09-18T15:36:03.116Z,29.85
2018-09-18T15:38:33.227Z,29.20
2018-09-18T15:41:03.357Z,30.47
2018-09-18T15:43:33.460Z,29.54
2018-09-18T15:46:03.581Z,29.60
2018-09-18T15:48:33.758Z,30.03
2018-09-18T15:51:03.877Z,29.68
2018-09-18T15:53:34.031Z,29.77
2018-09-18T15:56:04.127Z,29.23
2018-09-18T15:58:34.208Z,29.21
2018-09-18T16:01:04.308Z,29.31
2018-09-18T16:03:34.394Z,28.81
2018-09-18T16:06:04.472Z,30.18
2018-09-18T16:08:34.600Z,30.23
2018-09-18T16:11:04.866Z,31.41
2018-09-18T16:13:34.943Z,32.48
2018-09-18T16:16:05.068Z,33.45
2018-09-18T16:18:35.244Z,33.48
2018-09-18T16:21:05.377Z,33.84
2018-09-18T16:23:35.489Z,33.10
2018-09-18T16:26:05.622Z,34.07
2018-09-18T16:28:35.669Z,34.18
2018-09-18T16:31:05.756Z,33.94
2018-09-18T16:33:35.850Z,33.88
2018-09-18T16:36:06.035Z,34.48
2018-09-18T16:38:36.797Z,34.12
2018-09-18T16:41:06.994Z,34.13
2018-09-18T16:43:37.071Z,34.65
2018-09-18T16:46:07.180Z,35.35
2018-09-18T16:48:37.334Z,36.50
2018-09-18T16:51:07.415Z,36.22
2018-09-18T16:53:37.532Z,37.25
2018-09-18T16:56:07.601Z,37.50
2018-09-18T16:58:37.759Z,37.17
2018-09-18T17:01:07.926Z,37.28
2018-09-18T17:03:38.030Z,37.91
2018-09-18T17:06:08.382Z,38.10
2018-09-18T17:08:38.519Z,38.24
2018-09-18T17:11:08.633Z,39.68
2018-09-18T17:13:38.760Z,40.03
2018-09-18T17:16:08.844Z,40.18
2018-09-18T17:18:39.001Z,41.11
2018-09-18T17:21:09.048Z,41.52
2018-09-18T17:23:39.253Z,41.46
2018-09-18T17:26:09.367Z,42.30
2018-09-18T17:28:40.081Z,42.27
2018-09-18T17:31:10.118Z,41.40
2018-09-18T17:33:42.948Z,41.29
2018-09-18T17:36:20.867Z,41.39
2018-09-18T17:38:57.793Z,41.63
2018-09-18T17:41:34.148Z,42.22
2018-09-18T17:44:10.889Z,42.73
2018-09-18T17:46:41.245Z,42.01
2018-09-18T17:49:11.337Z,42.44
2018-09-18T17:51:41.557Z,42.53
2018-09-18T17:54:11.729Z,42.53
2018-09-18T17:56:41.825Z,43.74
2018-09-18T17:59:11.933Z,44.96
2018-09-18T18:01:42.346Z,44.45
2018-09-18T18:04:12.549Z,44.91
2018-09-18T18:06:42.660Z,45.64
2018-09-18T18:09:13.451Z,45.13
2018-09-18T18:11:43.604Z,45.93
2018-09-18T18:14:14.225Z,46.04
2018-09-18T18:16:44.336Z,46.51
2018-09-18T18:19:14.493Z,47.25
2018-09-18T18:21:44.597Z,47.27
2018-09-18T18:24:15.095Z,47.81
2018-09-18T18:26:45.272Z,47.45
2018-09-18T18:29:15.414Z,47.91
2018-09-18T18:31:45.531Z,47.49
2018-09-18T18:34:15.678Z,47.54
2018-09-18T18:36:45.830Z,48.17
2018-09-18T18:39:15.982Z,48.04
2018-09-18T18:41:46.233Z,48.93
2018-09-18T18:44:18.042Z,49.20
2018-09-18T18:46:50.109Z,49.66
2018-09-18T18:49:21.773Z,51.15
2018-09-18T18:51:52.079Z,50.91
2018-09-18T18:54:23.813Z,51.22
2018-09-18T18:56:54.295Z,51.72
2018-09-18T18:59:24.380Z,53.21
2018-09-18T19:01:54.503Z,53.56
2018-09-18T19:04:24.603Z,53.35
2018-09-18T19:06:54.829Z,53.67
2018-09-18T19:09:24.942Z,54.38
2018-09-18T19:11:55.069Z,54.82
2018-09-18T19:14:25.264Z,54.48
2018-09-18T19:16:55.498Z,55.74
2018-09-18T19:19:25.650Z,56.58
2018-09-18T19:21:55.761Z,57.10
2018-09-18T19:24:25.908Z,58.02
2018-09-18T19:26:56.007Z,58.23
2018-09-18T19:29:26.104Z,59.79
2018-09-18T19:31:56.246Z,59.73
2018-09-18T19:34:26.356Z,60.42
2018-09-18T19:36:56.437Z,61.12
2018-09-18T19:39:26.499Z,61.41
2018-09-18T19:41:56.592Z,64.22
2018-09-18T19:44:26.744Z,64.70
2018-09-18T19:46:56.790Z,66.64
2018-09-18T19:49:26.866Z,68.23
2018-09-18T19:51:56.944Z,69.19
2018-09-18T19:54:27.088Z,70.72
2018-09-18T19:56:57.313Z,71.03
2018-09-18T19:59:27.375Z,71.46
2018-09-18T20:01:57.477Z,72.01
2018-09-18T20:04:27.909Z,72.75
2018-09-18T20:06:58.048Z,72.28
2018-09-18T20:09:28.257Z,73.53
2018-09-18T20:12:01.378Z,73.55
2018-09-18T20:14:31.511Z,73.38
2018-09-18T20:17:01.614Z,73.88
2018-09-18T20:19:31.758Z,73.78
2018-09-18T20:22:01.861Z,74.01
2018-09-18T20:24:32.044Z,74.50
2018-09-18T20:27:02.101Z,74.65
2018-09-18T20:29:32.189Z,74.26
2018-09-18T20:32:02.343Z,74.81
2018-09-18T20:34:32.474Z,75.59
2018-09-18T20:37:02.509Z,76.05
2018-09-18T20:39:32.634Z,76.69
2018-09-18T20:42:02.770Z,76.56
2018-09-18T20:44:32.926Z,77.43
2018-09-18T20:47:03.031Z,77.52
2018-09-18T20:49:33.168Z,78.06
2018-09-18T20:52:03.279Z,79.34
2018-09-18T20:54:33.413Z,79.31
2018-09-18T20:57:03.473Z,79.24
2018-09-18T20:59:33.604Z,79.68
2018-09-18T21:02:03.707Z,79.95
2018-09-18T21:04:33.820Z,80.26
2018-09-18T21:07:03.974Z,80.27
2018-09-18T21:09:34.103Z,80.81
2018-09-18T21:12:04.198Z,80.78
2018-09-18T21:14:34.306Z,81.11
2018-09-18T21:17:04.417Z,81.55
2018-09-18T21:19:34.515Z,81.72
2018-09-18T21:22:04.739Z,81.46
2018-09-18T21:24:34.837Z,81.42
2018-09-18T21:27:04.931Z,81.46
2018-09-18T21:29:35.043Z,81.47
2018-09-18T21:32:05.115Z,81.11
2018-09-18T21:34:35.227Z,81.68
2018-09-18T21:37:05.338Z,81.31
2018-09-18T21:39:35.520Z,82.07
2018-09-18T21:42:05.617Z,81.78
2018-09-18T21:44:35.727Z,82.23
2018-09-18T21:47:05.802Z,82.04
2018-09-18T21:49:35.893Z,82.51
2018-09-18T21:52:06.006Z,82.72
2018-09-18T21:54:36.118Z,83.13
2018-09-18T21:57:06.258Z,82.83
2018-09-18T21:59:36.387Z,82.37
2018-09-18T22:02:06.447Z,82.35
2018-09-18T22:04:36.562Z,82.70
2018-09-18T22:07:06.773Z,82.76
2018-09-18T22:09:36.875Z,82.95
2018-09-18T22:12:06.982Z,83.52
2018-09-18T22:14:37.155Z,84.41
2018-09-18T22:17:07.302Z,84.63
2018-09-18T22:19:37.357Z,85.14
2018-09-18T22:22:07.502Z,85.10
2018-09-18T22:24:37.679Z,85.66
2018-09-18T22:27:07.726Z,85.68
2018-09-18T22:29:37.852Z,85.96
2018-09-18T22:32:08.083Z,86.51
2018-09-18T22:34:38.202Z,86.34
2018-09-18T22:37:08.416Z,85.96
2018-09-18T22:39:38.561Z,86.32
2018-09-18T22:42:09.470Z,86.48
2018-09-18T22:44:39.666Z,86.46
2018-09-18T22:47:09.694Z,87.21
2018-09-18T22:49:39.847Z,87.68
2018-09-18T22:52:09.870Z,87.57
2018-09-18T22:54:40.231Z,87.88
2018-09-18T22:57:10.412Z,87.82
2018-09-18T22:59:40.539Z,88.59
2018-09-18T23:02:10.725Z,89.07
2018-09-18T23:04:40.849Z,89.11
2018-09-18T23:07:10.943Z,88.70
2018-09-18T23:09:41.101Z,88.87
2018-09-18T23:12:11.239Z,88.53
2018-09-18T23:14:41.459Z,88.98
2018-09-18T23:17:11.494Z,89.24
2018-09-18T23:19:41.654Z,88.74
2018-09-18T23:22:11.761Z,88.67
2018-09-18T23:24:42.774Z,88.21
2018-09-18T23:27:12.832Z,87.12
2018-09-18T23:29:42.910Z,87.11
2018-09-18T23:32:12.968Z,86.30
2018-09-18T23:34:43.063Z,85.30
2018-09-18T23:37:13.140Z,84.75
2018-09-18T23:39:43.276Z,84.98
2018-09-18T23:42:13.430Z,85.00
2018-09-18T23:44:43.506Z,84.90
2018-09-18T23:47:13.694Z,84.66
2018-09-18T23:49:43.790Z,84.68
2018-09-18T23:52:13.872Z,84.77
2018-09-18T23:54:43.944Z,84.84
2018-09-18T23:57:14.056Z,84.97
2018-09-18T23:59:44.232Z,84.84
